createdAt,value
2019-04-21T00:00:35.703Z,22.70
2019-04-21T00:03:11.501Z,23.50
2019-04-21T00:05:58.168Z,22.63
2019-04-21T00:08:33.328Z,23.87
2019-04-21T00:11:05.944Z,23.43
2019-04-21T00:13:25.263Z,22.10
2019-04-21T00:15:48.821Z,23.40
2019-04-21T00:18:40.901Z,24.77
2019-04-21T00:21:17.573Z,23.27
2019-04-21T00:23:55.352Z,23.50
2019-04-21T00:26:25.377Z,23.83
2019-04-21T00:29:05.141Z,23.60
2019-04-21T00:31:24.694Z,23.67
2019-04-21T00:33:44.474Z,24.40
2019-04-21T00:36:18.554Z,23.53
2019-04-21T00:39:18.539Z,23.23
2019-04-21T00:41:38.093Z,22.73
2019-04-21T00:44:02.053Z,23.23
2019-04-21T00:46:31.193Z,23.80
2019-04-21T00:49:09.512Z,23.93
2019-04-21T00:51:58.385Z,23.63
2019-04-21T00:54:23.146Z,22.30
2019-04-21T00:56:49.672Z,23.30
2019-04-21T00:59:19.763Z,24.17
2019-04-21T01:01:52.339Z,23.90
2019-04-21T01:04:15.302Z,24.17
2019-04-21T01:06:55.659Z,23.07
2019-04-21T01:09:19.706Z,23.57
2019-04-21T01:11:51.962Z,23.77
2019-04-21T01:14:29.880Z,23.53
2019-04-21T01:17:02.302Z,24.40
2019-04-21T01:19:23.857Z,24.27
2019-04-21T01:21:36.105Z,23.80
2019-04-21T01:24:13.367Z,23.07
2019-04-21T01:26:48.353Z,24.27
2019-04-21T01:29:35.700Z,23.13
2019-04-21T01:32:05.114Z,23.30
2019-04-21T01:34:30.394Z,24.50
2019-04-21T01:37:02.257Z,23.67
2019-04-21T01:39:34.510Z,23.97
2019-04-21T01:42:03.245Z,22.37
2019-04-21T01:44:59.461Z,24.50
2019-04-21T01:46:59.796Z,23.13
2019-04-21T01:49:29.571Z,23.60
2019-04-21T01:52:17.905Z,23.90
2019-04-21T01:55:00.322Z,27.50
2019-04-21T01:57:54.033Z,24.07
2019-04-21T02:00:32.660Z,23.77
2019-04-21T02:03:12.934Z,23.57
2019-04-21T02:05:44.395Z,22.57
2019-04-21T02:08:05.374Z,23.43
2019-04-21T02:10:53.030Z,21.77
2019-04-21T02:13:08.609Z,22.57
2019-04-21T02:15:46.674Z,23.20
2019-04-21T02:18:12.124Z,23.00
2019-04-21T02:20:35.934Z,23.13
2019-04-21T02:23:28.158Z,23.60
2019-04-21T02:25:44.344Z,24.07
2019-04-21T02:28:22.176Z,22.20
2019-04-21T02:31:09.613Z,22.43
2019-04-21T02:36:15.112Z,22.80
2019-04-21T02:38:40.178Z,21.70
2019-04-21T02:40:57.597Z,24.20
2019-04-21T02:43:54.295Z,23.47
2019-04-21T02:46:19.618Z,23.00
2019-04-21T02:48:43.545Z,23.43
2019-04-21T02:51:13.188Z,23.17
2019-04-21T02:56:09.792Z,22.63
2019-04-21T02:58:57.783Z,22.10
2019-04-21T03:04:38.522Z,22.30
2019-04-21T03:07:14.847Z,23.70
2019-04-21T03:09:41.012Z,23.53
2019-04-21T03:17:18.307Z,22.40
2019-04-21T03:27:28.818Z,22.83
2019-04-21T03:29:52.597Z,22.77
2019-04-21T03:38:37.454Z,23.60
2019-04-21T03:40:05.265Z,22.87
2019-04-21T03:42:44.986Z,23.10
2019-04-21T03:47:38.397Z,22.57
2019-04-21T03:50:18.832Z,22.57
2019-04-21T03:52:53.421Z,24.07
2019-04-21T04:08:59.216Z,22.90
2019-04-21T04:13:57.916Z,22.37
2019-04-21T04:16:18.872Z,22.77
2019-04-21T04:18:52.880Z,21.97
2019-04-21T04:21:30.264Z,21.97
2019-04-21T04:26:33.625Z,21.40
2019-04-21T04:29:12.400Z,22.13
2019-04-21T04:34:15.615Z,22.20
2019-04-21T04:39:43.402Z,22.00
2019-04-21T04:47:18.500Z,22.47
2019-04-21T04:49:50.010Z,23.90
2019-04-21T04:57:42.011Z,23.20
2019-04-21T05:02:27.893Z,22.57
2019-04-21T05:07:21.306Z,21.50
2019-04-21T05:09:52.377Z,21.27
2019-04-21T05:12:19.414Z,21.47
2019-04-21T05:14:51.767Z,20.97
2019-04-21T05:17:28.689Z,21.70
2019-04-21T05:22:22.209Z,21.57
2019-04-21T05:24:44.065Z,21.07
2019-04-21T05:27:34.936Z,21.10
2019-04-21T05:30:16.882Z,20.97
2019-04-21T05:33:20.792Z,22.80
2019-04-21T05:36:12.971Z,20.57
2019-04-21T05:39:08.931Z,20.57
2019-04-21T05:41:31.373Z,21.00
2019-04-21T05:44:09.868Z,20.50
2019-04-21T05:46:47.856Z,19.17
2019-04-21T05:49:21.706Z,20.60
2019-04-21T05:51:55.765Z,19.40
2019-04-21T05:54:39.685Z,20.10
2019-04-21T05:57:02.389Z,20.07
2019-04-21T05:59:33.859Z,19.50
2019-04-21T06:02:13.966Z,18.87
2019-04-21T06:05:02.072Z,19.73
2019-04-21T06:07:20.866Z,17.83
2019-04-21T06:09:43.933Z,18.30
2019-04-21T06:12:13.642Z,18.30
2019-04-21T06:14:48.440Z,18.20
2019-04-21T06:17:18.818Z,18.97
2019-04-21T06:19:50.296Z,18.83
2019-04-21T06:22:14.898Z,17.57
2019-04-21T06:25:15.770Z,18.07
2019-04-21T06:27:27.518Z,17.70
2019-04-21T06:29:54.493Z,19.13
2019-04-21T06:32:38.584Z,17.77
2019-04-21T06:35:13.440Z,17.07
2019-04-21T06:40:30.557Z,19.23
2019-04-21T06:42:51.707Z,17.87
2019-04-21T06:45:25.828Z,18.83
2019-04-21T06:50:15.854Z,18.27
2019-04-21T06:55:20.392Z,18.83
2019-04-21T06:57:46.285Z,18.30
2019-04-21T07:00:21.109Z,18.40
2019-04-21T07:03:16.017Z,19.17
2019-04-21T07:05:26.476Z,18.30
2019-04-21T07:08:07.606Z,19.43
2019-04-21T07:10:30.484Z,18.23
2019-04-21T07:12:51.055Z,18.97
2019-04-21T07:15:32.548Z,19.10
2019-04-21T07:18:04.414Z,18.10
2019-04-21T07:20:30.963Z,18.23
2019-04-21T07:23:01.749Z,19.00
2019-04-21T07:25:39.030Z,17.80
2019-04-21T07:28:07.419Z,18.00
2019-04-21T07:30:39.193Z,18.70
2019-04-21T07:35:41.087Z,18.70
2019-04-21T07:38:11.246Z,19.03
2019-04-21T07:40:33.739Z,18.60
2019-04-21T07:43:05.597Z,19.47
2019-04-21T07:45:36.447Z,19.10
2019-04-21T07:48:20.289Z,19.23
2019-04-21T07:51:22.904Z,19.40
2019-04-21T07:53:55.710Z,19.50
2019-04-21T07:56:06.529Z,19.40
2019-04-21T07:58:56.354Z,20.03
2019-04-21T08:01:28.947Z,18.03
2019-04-21T08:03:58.139Z,19.13
2019-04-21T08:06:27.912Z,19.83
2019-04-21T08:08:53.073Z,20.20
2019-04-21T08:11:21.885Z,19.33
2019-04-21T08:13:57.896Z,19.67
2019-04-21T08:16:30.539Z,18.37
2019-04-21T08:18:59.776Z,19.73
2019-04-21T08:21:36.874Z,19.80
2019-04-21T08:24:01.164Z,19.80
2019-04-21T08:26:38.304Z,20.80
2019-04-21T08:29:13.416Z,20.27
2019-04-21T08:31:38.300Z,19.77
2019-04-21T08:34:08.438Z,19.40
2019-04-21T08:36:38.412Z,21.07
2019-04-21T08:39:06.496Z,19.37
2019-04-21T08:41:40.869Z,19.77
2019-04-21T08:44:09.318Z,21.13
2019-04-21T08:46:48.752Z,21.23
2019-04-21T08:49:15.719Z,19.70
2019-04-21T08:51:50.436Z,20.57
2019-04-21T08:54:15.083Z,20.97
2019-04-21T08:57:09.089Z,22.33
2019-04-21T09:00:06.905Z,21.57
2019-04-21T09:02:40.395Z,22.20
2019-04-21T09:05:11.128Z,21.47
2019-04-21T09:07:45.499Z,23.03
2019-04-21T09:10:14.389Z,21.87
2019-04-21T09:12:44.856Z,21.63
2019-04-21T09:15:14.098Z,21.23
2019-04-21T09:17:36.780Z,22.63
2019-04-21T09:22:48.089Z,23.03
2019-04-21T09:25:26.579Z,21.77
2019-04-21T09:27:51.738Z,22.13
2019-04-21T09:30:06.505Z,23.63
2019-04-21T09:32:36.665Z,22.07
2019-04-21T09:35:10.682Z,23.40
2019-04-21T09:37:45.782Z,20.93
2019-04-21T09:40:08.992Z,22.27
2019-04-21T09:42:48.972Z,22.70
2019-04-21T09:45:12.168Z,23.10
2019-04-21T09:47:49.242Z,21.37
2019-04-21T09:50:13.465Z,22.20
2019-04-21T09:52:52.221Z,22.40
2019-04-21T09:55:19.617Z,22.03
2019-04-21T09:57:51.967Z,21.57
2019-04-21T10:00:22.732Z,20.80
2019-04-21T10:02:56.819Z,21.80
2019-04-21T10:05:19.923Z,21.33
2019-04-21T10:07:50.673Z,20.83
2019-04-21T10:10:20.254Z,21.93
2019-04-21T10:12:50.010Z,21.20
2019-04-21T10:15:21.959Z,21.50
2019-04-21T10:17:54.079Z,22.30
2019-04-21T10:20:24.505Z,21.10
2019-04-21T10:22:55.281Z,22.53
2019-04-21T10:25:25.141Z,20.77
2019-04-21T10:27:54.922Z,20.52
2019-04-21T10:30:25.061Z,20.87
2019-04-21T10:32:54.390Z,20.32
2019-04-21T10:35:25.070Z,21.02
2019-04-21T10:38:08.969Z,21.10
2019-04-21T10:40:25.584Z,22.10
2019-04-21T10:42:56.368Z,20.60
2019-04-21T10:45:26.170Z,19.90
2019-04-21T10:47:56.759Z,19.80
2019-04-21T10:50:26.784Z,18.95
2019-04-21T10:53:09.447Z,19.87
2019-04-21T10:55:55.645Z,18.37
2019-04-21T10:58:12.368Z,18.85
2019-04-21T11:00:42.297Z,19.45
2019-04-21T11:03:46.721Z,19.37
2019-04-21T11:06:18.896Z,19.25
2019-04-21T11:08:52.373Z,19.07
2019-04-21T11:11:19.874Z,19.52
2019-04-21T11:13:50.536Z,20.65
2019-04-21T11:16:21.332Z,18.25
2019-04-21T11:18:51.645Z,18.37
2019-04-21T11:21:21.101Z,19.02
2019-04-21T11:23:50.430Z,18.27
2019-04-21T11:26:20.550Z,16.75
2019-04-21T11:28:50.554Z,18.70
2019-04-21T11:31:20.895Z,19.65
2019-04-21T11:33:51.185Z,20.75
2019-04-21T11:36:21.620Z,20.37
2019-04-21T11:39:25.671Z,19.60
2019-04-21T11:41:47.744Z,19.62
2019-04-21T11:44:18.289Z,20.10
2019-04-21T11:46:48.849Z,19.82
2019-04-21T11:49:19.975Z,20.30
2019-04-21T11:51:49.393Z,20.32
2019-04-21T11:54:19.170Z,20.45
2019-04-21T11:56:48.580Z,20.43
2019-04-21T11:59:18.044Z,19.98
2019-04-21T12:01:47.597Z,19.75
2019-04-21T12:04:17.957Z,20.68
2019-04-21T12:06:49.144Z,20.00
2019-04-21T12:09:18.958Z,21.65
2019-04-21T12:11:49.414Z,20.85
2019-04-21T12:14:19.888Z,20.27
2019-04-21T12:16:49.323Z,19.57
2019-04-21T12:19:20.775Z,22.02
2019-04-21T12:22:01.981Z,19.25
2019-04-21T12:24:21.740Z,20.23
2019-04-21T12:26:51.794Z,20.20
2019-04-21T12:29:21.218Z,18.40
2019-04-21T12:32:07.723Z,19.73
2019-04-21T12:34:37.385Z,18.35
2019-04-21T12:37:06.818Z,16.82
2019-04-21T12:39:36.887Z,17.70
2019-04-21T12:42:06.783Z,18.70
2019-04-21T12:44:37.172Z,19.82
2019-04-21T12:47:07.964Z,19.95
2019-04-21T12:49:38.059Z,21.17
2019-04-21T12:52:09.379Z,20.70
2019-04-21T12:54:39.672Z,19.62
2019-04-21T12:57:09.668Z,19.52
2019-04-21T12:59:39.580Z,19.92
2019-04-21T13:02:09.595Z,19.52
2019-04-21T13:04:40.031Z,20.57
2019-04-21T13:07:09.851Z,19.82
2019-04-21T13:09:40.165Z,22.00
2019-04-21T13:12:11.091Z,20.75
2019-04-21T13:14:40.457Z,20.43
2019-04-21T13:17:09.931Z,21.40
2019-04-21T13:19:39.462Z,21.65
2019-04-21T13:22:09.897Z,20.02
2019-04-21T13:24:39.935Z,20.50
2019-04-21T13:27:11.349Z,20.62
2019-04-21T13:29:41.866Z,20.55
2019-04-21T13:32:12.607Z,22.93
2019-04-21T13:34:42.158Z,22.15
2019-04-21T13:37:11.919Z,24.05
2019-04-21T13:40:26.207Z,23.27
2019-04-21T13:42:43.889Z,22.87
2019-04-21T13:45:08.269Z,22.75
2019-04-21T13:47:38.729Z,23.95
2019-04-21T13:50:08.988Z,23.42
2019-04-21T13:52:38.537Z,21.77
2019-04-21T13:55:09.485Z,23.65
2019-04-21T13:57:40.811Z,21.60
2019-04-21T14:00:11.071Z,18.10
2019-04-21T14:02:40.806Z,18.00
2019-04-21T14:05:13.463Z,19.05
2019-04-21T14:07:42.252Z,17.60
2019-04-21T14:10:14.033Z,16.40
2019-04-21T14:12:44.411Z,15.30
2019-04-21T14:15:14.708Z,15.78
2019-04-21T14:17:44.658Z,15.15
2019-04-21T14:20:15.318Z,15.72
2019-04-21T14:22:44.796Z,16.40
2019-04-21T14:25:15.301Z,16.40
2019-04-21T14:27:48.232Z,16.55
2019-04-21T14:30:16.625Z,15.83
2019-04-21T14:32:47.378Z,15.53
2019-04-21T14:35:18.825Z,17.90
2019-04-21T14:37:48.792Z,16.45
2019-04-21T14:40:23.661Z,15.70
2019-04-21T14:42:50.178Z,15.50
2019-04-21T14:45:45.126Z,16.75
2019-04-21T14:48:32.822Z,16.83
2019-04-21T14:51:31.474Z,16.62
2019-04-21T14:54:08.033Z,16.10
2019-04-21T14:56:37.568Z,15.48
2019-04-21T14:59:07.288Z,16.55
2019-04-21T15:01:37.734Z,15.38
2019-04-21T15:04:08.040Z,16.03
2019-04-21T15:06:39.189Z,16.17
2019-04-21T15:09:11.105Z,15.77
2019-04-21T15:11:40.554Z,15.93
2019-04-21T15:14:09.918Z,15.58
2019-04-21T15:16:40.801Z,15.87
2019-04-21T15:19:10.841Z,15.10
2019-04-21T15:21:40.495Z,15.50
2019-04-21T15:24:09.987Z,15.73
2019-04-21T15:26:40.139Z,14.87
2019-04-21T15:29:10.771Z,16.17
2019-04-21T15:31:43.147Z,16.20
2019-04-21T15:34:13.109Z,17.40
2019-04-21T15:36:43.964Z,15.73
2019-04-21T15:39:13.948Z,16.80
2019-04-21T15:41:44.910Z,16.77
2019-04-21T15:44:14.751Z,15.47
2019-04-21T15:46:44.026Z,15.40
2019-04-21T15:49:13.403Z,12.47
2019-04-21T15:51:43.991Z,12.33
2019-04-21T15:54:14.420Z,13.20
2019-04-21T15:56:56.581Z,12.63
2019-04-21T16:00:04.672Z,11.83
2019-04-21T16:02:50.947Z,10.93
2019-04-21T16:05:20.330Z,10.37
2019-04-21T16:07:49.987Z,10.53
2019-04-21T16:10:30.872Z,10.57
2019-04-21T16:12:52.050Z,11.00
2019-04-21T16:15:22.773Z,11.70
2019-04-21T16:17:53.191Z,11.23
2019-04-21T16:20:24.041Z,11.13
2019-04-21T16:22:54.810Z,11.07
2019-04-21T16:25:24.413Z,10.30
2019-04-21T16:27:55.141Z,10.33
2019-04-21T16:30:25.894Z,10.40
2019-04-21T16:32:56.401Z,11.33
2019-04-21T16:35:26.703Z,12.67
2019-04-21T16:37:58.748Z,30.90
2019-04-21T16:40:27.608Z,30.63
2019-04-21T16:42:58.434Z,32.47
2019-04-21T16:45:28.704Z,31.33
2019-04-21T16:47:59.103Z,32.50
2019-04-21T16:50:29.797Z,31.07
2019-04-21T16:53:03.930Z,31.00
2019-04-21T16:55:41.479Z,32.53
2019-04-21T16:58:29.568Z,32.60
2019-04-21T17:01:12.720Z,32.73
2019-04-21T17:03:38.002Z,31.37
2019-04-21T17:06:07.348Z,30.83
2019-04-21T17:08:36.983Z,30.83
2019-04-21T17:11:14.016Z,30.57
2019-04-21T17:13:38.286Z,31.67
2019-04-21T17:16:38.906Z,30.93
2019-04-21T17:18:51.456Z,31.17
2019-04-21T17:21:12.464Z,32.77
2019-04-21T17:23:41.733Z,31.13
2019-04-21T17:26:11.092Z,32.73
2019-04-21T17:28:40.709Z,32.40
2019-04-21T17:31:10.860Z,32.87
2019-04-21T17:33:41.387Z,32.53
2019-04-21T17:36:11.288Z,31.27
2019-04-21T17:38:41.890Z,31.50
2019-04-21T17:41:21.827Z,32.67
2019-04-21T17:43:43.560Z,31.27
2019-04-21T17:46:20.402Z,31.47
2019-04-21T17:48:45.151Z,30.77
2019-04-21T17:51:39.482Z,29.60
2019-04-21T17:54:21.280Z,32.13
2019-04-21T17:57:04.559Z,31.50
2019-04-21T17:59:45.147Z,30.20
2019-04-21T18:02:03.929Z,31.77
2019-04-21T18:04:39.534Z,31.90
2019-04-21T18:07:29.047Z,31.90
2019-04-21T18:12:31.851Z,32.43
2019-04-21T18:14:59.221Z,30.97
2019-04-21T18:17:18.325Z,32.83
2019-04-21T18:19:51.307Z,32.70
2019-04-21T18:22:41.714Z,33.93
2019-04-21T18:25:28.368Z,34.30
2019-04-21T18:27:44.808Z,34.17
2019-04-21T18:30:42.340Z,33.70
2019-04-21T18:33:21.305Z,33.20
2019-04-21T18:36:22.269Z,34.23
2019-04-21T18:39:16.404Z,34.53
2019-04-21T18:42:04.937Z,34.60
2019-04-21T18:45:05.212Z,32.37
2019-04-21T18:47:37.216Z,32.23
2019-04-21T18:49:54.645Z,33.00
2019-04-21T18:52:45.558Z,33.93
2019-04-21T18:55:12.917Z,33.40
2019-04-21T18:57:39.516Z,33.63
2019-04-21T19:00:08.627Z,34.37
2019-04-21T19:02:42.690Z,34.77
2019-04-21T19:05:11.471Z,33.53
2019-04-21T19:07:55.819Z,34.20
2019-04-21T19:10:26.788Z,32.90
2019-04-21T19:15:32.112Z,31.60
2019-04-21T19:18:36.636Z,31.27
2019-04-21T19:20:32.824Z,31.63
2019-04-21T19:22:58.756Z,33.50
2019-04-21T19:25:31.555Z,32.40
2019-04-21T19:28:03.417Z,33.80
2019-04-21T19:30:39.887Z,32.60
2019-04-21T19:33:10.203Z,30.83
2019-04-21T19:35:23.606Z,31.90
2019-04-21T19:37:59.414Z,33.70
2019-04-21T19:40:44.857Z,31.03
2019-04-21T19:43:03.600Z,31.60
2019-04-21T19:45:38.147Z,32.97
2019-04-21T19:48:15.002Z,31.30
2019-04-21T19:50:51.545Z,29.27
2019-04-21T19:53:08.864Z,30.17
2019-04-21T19:55:32.012Z,31.13
2019-04-21T19:58:03.074Z,30.53
2019-04-21T20:00:32.599Z,32.13
2019-04-21T20:03:03.067Z,29.20
2019-04-21T20:05:43.073Z,29.73
2019-04-21T20:08:17.709Z,30.90
2019-04-21T20:10:58.009Z,29.90
2019-04-21T20:13:35.278Z,31.30
2019-04-21T20:15:57.118Z,31.83
2019-04-21T20:18:21.231Z,29.47
2019-04-21T20:20:39.639Z,29.73
2019-04-21T20:23:16.915Z,30.27
2019-04-21T20:25:47.434Z,31.43
2019-04-21T20:28:22.173Z,32.37
2019-04-21T20:31:01.569Z,34.97
2019-04-21T20:33:49.063Z,36.43
2019-04-21T20:36:03.349Z,33.07
2019-04-21T20:38:29.876Z,32.57
2019-04-21T20:40:53.581Z,32.00
2019-04-21T20:43:38.079Z,32.00
2019-04-21T20:46:08.034Z,31.27
2019-04-21T20:48:31.911Z,30.93
2019-04-21T20:51:23.090Z,32.70
2019-04-21T20:53:36.193Z,32.37
2019-04-21T20:56:05.032Z,31.53
2019-04-21T20:58:42.608Z,32.23
2019-04-21T21:01:29.477Z,32.07
2019-04-21T21:03:46.460Z,32.40
2019-04-21T21:06:09.939Z,32.30
2019-04-21T21:08:44.564Z,31.63
2019-04-21T21:11:21.515Z,32.33
2019-04-21T21:13:49.139Z,32.90
2019-04-21T21:16:29.167Z,34.57
2019-04-21T21:19:04.313Z,33.27
2019-04-21T21:21:20.654Z,32.53
2019-04-21T21:23:56.206Z,32.10
2019-04-21T21:26:25.739Z,33.17
2019-04-21T21:28:54.153Z,32.53
2019-04-21T21:31:33.861Z,34.27
2019-04-21T21:34:08.260Z,33.43
2019-04-21T21:36:26.510Z,34.37
2019-04-21T21:39:01.261Z,34.60
2019-04-21T21:41:22.108Z,36.53
2019-04-21T21:43:47.757Z,35.40
2019-04-21T21:46:31.185Z,36.30
2019-04-21T21:48:59.123Z,33.77
2019-04-21T21:51:29.279Z,34.90
2019-04-21T21:53:48.571Z,32.80
2019-04-21T21:56:18.574Z,34.77
2019-04-21T21:58:49.664Z,34.43
2019-04-21T22:01:21.818Z,33.73
2019-04-21T22:04:01.704Z,35.83
2019-04-21T22:06:23.985Z,34.23
2019-04-21T22:08:52.725Z,34.73
2019-04-21T22:11:22.200Z,35.83
2019-04-21T22:13:57.682Z,34.97
2019-04-21T22:16:28.629Z,34.73
2019-04-21T22:19:22.926Z,35.47
2019-04-21T22:21:41.633Z,34.30
2019-04-21T22:24:03.553Z,34.60
2019-04-21T22:26:27.259Z,34.73
2019-04-21T22:28:58.049Z,33.63
2019-04-21T22:31:31.578Z,34.40
2019-04-21T22:34:03.826Z,35.77
2019-04-21T22:36:43.772Z,36.67
2019-04-21T22:39:20.789Z,36.70
2019-04-21T22:41:40.510Z,37.90
2019-04-21T22:44:02.822Z,38.73
2019-04-21T22:46:32.702Z,37.07
2019-04-21T22:49:08.370Z,37.57
2019-04-21T22:51:38.431Z,37.80
2019-04-21T22:54:04.330Z,37.10
2019-04-21T22:56:35.559Z,37.70
2019-04-21T22:59:09.668Z,37.60
2019-04-21T23:01:41.464Z,37.07
2019-04-21T23:04:08.548Z,36.00
2019-04-21T23:06:39.203Z,36.43
2019-04-21T23:09:10.880Z,36.87
2019-04-21T23:11:45.408Z,38.23
2019-04-21T23:14:13.167Z,37.13
2019-04-21T23:16:45.668Z,37.03
2019-04-21T23:19:31.344Z,36.07
2019-04-21T23:22:03.420Z,37.13
2019-04-21T23:24:42.068Z,38.53
2019-04-21T23:27:00.001Z,36.90
2019-04-21T23:29:47.878Z,36.50
2019-04-21T23:32:03.128Z,36.87
2019-04-21T23:34:26.608Z,37.80
2019-04-21T23:37:00.210Z,37.27
2019-04-21T23:39:28.427Z,36.70
2019-04-21T23:41:55.383Z,36.03
2019-04-21T23:44:25.984Z,37.90
2019-04-21T23:47:00.572Z,37.13
2019-04-21T23:49:37.975Z,36.77
2019-04-21T23:52:02.981Z,37.17
2019-04-21T23:54:29.297Z,37.67
2019-04-21T23:57:02.895Z,36.23
2019-04-21T23:59:32.488Z,37.27
